createdAt,value
2022-10-31T00:00:48.990Z,10.18
2022-10-31T00:03:16.349Z,10.40
2022-10-31T00:05:50.030Z,9.30
2022-10-31T00:08:17.916Z,13.05
2022-10-31T00:10:46.030Z,12.93
2022-10-31T00:13:13.552Z,12.15
2022-10-31T00:15:41.414Z,13.90
2022-10-31T00:18:09.741Z,9.45
2022-10-31T00:20:36.111Z,12.30
2022-10-31T00:23:03.523Z,12.47
2022-10-31T00:25:35.217Z,13.15
2022-10-31T00:28:02.090Z,10.65
2022-10-31T00:30:28.918Z,11.60
2022-10-31T00:32:55.259Z,15.35
2022-10-31T00:35:21.738Z,10.77
2022-10-31T00:37:48.080Z,15.05
2022-10-31T00:40:14.542Z,9.52
2022-10-31T00:42:42.486Z,13.77
2022-10-31T00:45:10.386Z,12.45
2022-10-31T00:47:36.860Z,14.37
2022-10-31T00:50:04.924Z,10.02
2022-10-31T00:52:31.266Z,10.30
2022-10-31T00:54:57.627Z,11.65
2022-10-31T00:57:23.951Z,11.15
2022-10-31T00:59:50.343Z,9.93
2022-10-31T01:02:16.868Z,13.65
2022-10-31T01:04:43.349Z,13.52
2022-10-31T01:07:09.828Z,11.48
2022-10-31T01:09:36.277Z,12.93
2022-10-31T01:12:02.656Z,8.57
2022-10-31T01:14:29.014Z,15.00
2022-10-31T01:16:55.337Z,10.27
2022-10-31T01:19:21.652Z,11.38
2022-10-31T01:21:47.986Z,10.73
2022-10-31T01:24:14.306Z,12.03
2022-10-31T01:26:40.632Z,10.18
2022-10-31T01:29:08.787Z,11.38
2022-10-31T01:31:38.503Z,10.68
2022-10-31T01:34:05.526Z,10.63
2022-10-31T01:36:39.817Z,9.30
2022-10-31T01:39:08.573Z,12.40
2022-10-31T01:41:37.909Z,9.50
2022-10-31T01:44:24.598Z,10.35
2022-10-31T01:46:56.131Z,10.35
2022-10-31T01:49:30.094Z,8.50
2022-10-31T01:52:08.166Z,11.05
2022-10-31T01:54:39.854Z,10.27
2022-10-31T01:57:09.625Z,12.55
2022-10-31T01:59:41.405Z,8.93
2022-10-31T02:02:08.251Z,12.47
2022-10-31T02:04:35.766Z,12.50
2022-10-31T02:07:08.285Z,10.32
2022-10-31T02:09:35.846Z,11.85
2022-10-31T02:12:03.120Z,8.45
2022-10-31T02:14:31.434Z,9.57
2022-10-31T02:16:58.493Z,9.57
2022-10-31T02:19:48.162Z,11.50
2022-10-31T02:22:38.478Z,9.15
2022-10-31T02:25:47.827Z,7.97
2022-10-31T02:28:33.269Z,8.47
2022-10-31T02:31:17.771Z,9.65
2022-10-31T02:33:55.654Z,9.63
2022-10-31T02:36:58.728Z,9.82
2022-10-31T02:39:41.780Z,9.43
2022-10-31T02:42:17.702Z,9.83
2022-10-31T02:44:54.414Z,11.60
2022-10-31T02:47:28.202Z,12.30
2022-10-31T02:50:01.377Z,8.45
2022-10-31T02:52:30.285Z,8.68
2022-10-31T02:54:56.736Z,6.60
2022-10-31T02:57:34.470Z,11.45
2022-10-31T03:00:07.410Z,9.45
2022-10-31T03:02:55.350Z,6.78
2022-10-31T03:05:50.540Z,10.55
2022-10-31T03:08:33.608Z,8.60
2022-10-31T03:11:03.720Z,9.13
2022-10-31T03:13:48.204Z,11.38
2022-10-31T03:16:37.445Z,7.78
2022-10-31T03:19:11.155Z,7.28
2022-10-31T03:21:43.412Z,6.27
2022-10-31T03:24:11.530Z,6.57
2022-10-31T03:26:42.333Z,5.90
2022-10-31T03:29:11.705Z,6.95
2022-10-31T03:31:46.218Z,5.70
2022-10-31T03:34:13.590Z,6.60
2022-10-31T03:36:42.154Z,6.25
2022-10-31T03:39:14.878Z,7.38
2022-10-31T03:41:47.726Z,10.60
2022-10-31T03:44:18.487Z,8.68
2022-10-31T03:46:45.291Z,10.50
2022-10-31T03:49:12.746Z,7.30
2022-10-31T03:52:03.426Z,7.68
2022-10-31T03:54:42.918Z,8.13
2022-10-31T03:57:16.962Z,6.70
2022-10-31T03:59:52.862Z,7.27
2022-10-31T04:02:23.763Z,5.50
2022-10-31T04:04:51.976Z,6.53
2022-10-31T04:07:21.235Z,7.25
2022-10-31T04:09:49.974Z,8.05
2022-10-31T04:12:17.507Z,7.13
2022-10-31T04:14:48.609Z,9.05
2022-10-31T04:17:17.426Z,5.43
2022-10-31T04:19:44.654Z,6.85
2022-10-31T04:22:11.147Z,6.22
2022-10-31T04:24:40.444Z,6.27
2022-10-31T04:27:07.223Z,6.65
2022-10-31T04:29:33.536Z,7.03
2022-10-31T04:31:59.872Z,5.68
2022-10-31T04:34:26.171Z,6.97
2022-10-31T04:36:52.474Z,9.70
2022-10-31T04:39:22.754Z,10.23
2022-10-31T04:41:53.178Z,8.10
2022-10-31T04:44:19.491Z,7.68
2022-10-31T04:46:45.833Z,7.43
2022-10-31T04:49:12.306Z,6.30
2022-10-31T04:51:38.740Z,7.80
2022-10-31T04:54:05.351Z,8.82
2022-10-31T04:56:31.669Z,7.88
2022-10-31T04:58:58.007Z,8.63
2022-10-31T05:01:24.407Z,6.37
2022-10-31T05:03:50.845Z,6.97
2022-10-31T05:06:17.502Z,6.55
2022-10-31T05:08:43.822Z,5.65
2022-10-31T05:11:10.188Z,8.95
2022-10-31T05:13:36.514Z,7.33
2022-10-31T05:16:03.688Z,6.88
2022-10-31T05:18:30.028Z,7.90
2022-10-31T05:20:56.360Z,7.47
2022-10-31T05:23:22.773Z,6.05
2022-10-31T05:25:49.082Z,6.67
2022-10-31T05:28:15.469Z,7.72
2022-10-31T05:30:41.784Z,7.32
2022-10-31T05:33:08.104Z,9.45
2022-10-31T05:35:34.592Z,7.25
2022-10-31T05:38:01.067Z,8.13
2022-10-31T05:40:28.480Z,7.25
2022-10-31T05:42:56.696Z,8.88
2022-10-31T05:45:23.901Z,24.42
2022-10-31T05:47:58.901Z,11.07
2022-10-31T05:50:27.110Z,24.57
2022-10-31T05:53:01.632Z,22.55
2022-10-31T05:55:29.389Z,16.38
2022-10-31T05:57:56.263Z,16.50
2022-10-31T06:00:23.465Z,24.73
2022-10-31T06:02:50.016Z,36.40
2022-10-31T06:05:17.383Z,38.70
2022-10-31T06:07:43.698Z,24.80
2022-10-31T06:10:10.453Z,23.05
2022-10-31T06:12:41.426Z,26.15
2022-10-31T06:15:09.295Z,21.87
2022-10-31T06:17:35.879Z,14.18
2022-10-31T06:20:02.335Z,19.70
2022-10-31T06:22:29.012Z,30.23
2022-10-31T06:24:55.532Z,36.92
2022-10-31T06:27:22.225Z,18.60
2022-10-31T06:29:48.631Z,26.42
2022-10-31T06:32:15.673Z,20.98
2022-10-31T06:34:42.699Z,11.23
2022-10-31T06:37:10.846Z,19.20
2022-10-31T06:39:37.262Z,17.27
2022-10-31T06:42:04.263Z,12.18
2022-10-31T06:44:30.956Z,13.52
2022-10-31T06:46:57.393Z,12.27
2022-10-31T06:49:23.701Z,17.27
2022-10-31T06:51:50.494Z,16.80
2022-10-31T06:54:17.531Z,22.85
2022-10-31T06:56:47.355Z,17.30
2022-10-31T06:59:14.255Z,11.25
2022-10-31T07:01:40.747Z,22.13
2022-10-31T07:04:07.140Z,23.97
2022-10-31T07:06:33.463Z,17.45
2022-10-31T07:08:59.865Z,20.00
2022-10-31T07:11:26.183Z,23.95
2022-10-31T07:13:52.475Z,17.17
2022-10-31T07:16:18.833Z,25.80
2022-10-31T07:18:45.151Z,14.52
2022-10-31T07:21:11.469Z,26.10
2022-10-31T07:23:38.092Z,15.20
2022-10-31T07:26:04.499Z,25.98
2022-10-31T07:28:30.811Z,15.87
2022-10-31T07:30:58.472Z,29.65
2022-10-31T07:33:28.442Z,14.07
2022-10-31T07:35:55.203Z,16.40
2022-10-31T07:38:21.619Z,34.65
2022-10-31T07:40:52.678Z,30.10
2022-10-31T07:43:19.650Z,24.23
2022-10-31T07:45:50.903Z,10.35
2022-10-31T07:48:17.226Z,12.45
2022-10-31T07:50:43.581Z,11.55
2022-10-31T07:53:12.332Z,18.97
2022-10-31T07:55:38.933Z,16.23
2022-10-31T07:58:14.222Z,12.38
2022-10-31T08:00:43.522Z,16.00
2022-10-31T08:03:12.485Z,17.48
2022-10-31T08:05:38.957Z,16.67
2022-10-31T08:08:06.288Z,11.32
2022-10-31T08:10:33.111Z,10.73
2022-10-31T08:13:06.045Z,10.95
2022-10-31T08:15:34.881Z,10.70
2022-10-31T08:18:01.529Z,13.47
2022-10-31T08:20:28.386Z,12.00
2022-10-31T08:22:59.878Z,15.82
2022-10-31T08:25:29.837Z,14.23
2022-10-31T08:27:59.338Z,16.75
2022-10-31T08:30:28.946Z,13.60
2022-10-31T08:33:12.779Z,11.55
2022-10-31T08:35:39.364Z,14.80
2022-10-31T08:38:05.998Z,13.32
2022-10-31T08:40:34.010Z,15.02
2022-10-31T08:43:02.626Z,19.67
2022-10-31T08:45:30.426Z,16.85
2022-10-31T08:48:01.755Z,13.77
2022-10-31T08:50:30.105Z,14.48
2022-10-31T08:53:08.384Z,15.13
2022-10-31T08:55:36.399Z,13.80
2022-10-31T08:58:04.727Z,14.55
2022-10-31T09:00:31.365Z,15.43
2022-10-31T09:02:59.330Z,15.05
2022-10-31T09:05:25.906Z,15.48
2022-10-31T09:07:56.142Z,19.03
2022-10-31T09:10:22.514Z,15.68
2022-10-31T09:12:59.175Z,19.95
2022-10-31T09:15:27.030Z,19.48
2022-10-31T09:17:53.633Z,16.38
2022-10-31T09:20:20.612Z,17.43
2022-10-31T09:22:47.282Z,20.67
2022-10-31T09:25:13.743Z,29.75
2022-10-31T09:27:40.075Z,16.80
2022-10-31T09:30:07.130Z,16.48
2022-10-31T09:32:33.451Z,15.63
2022-10-31T09:34:59.819Z,14.82
2022-10-31T09:37:26.150Z,17.17
2022-10-31T09:39:52.477Z,16.33
2022-10-31T09:42:37.682Z,17.15
2022-10-31T09:45:28.506Z,17.50
2022-10-31T09:48:16.723Z,16.45
2022-10-31T09:50:49.660Z,15.32
2022-10-31T09:53:32.085Z,20.48
2022-10-31T09:55:59.675Z,15.90
2022-10-31T09:58:33.041Z,17.60
2022-10-31T10:01:04.580Z,20.90
2022-10-31T10:03:37.278Z,17.90
2022-10-31T10:06:20.464Z,17.58
2022-10-31T10:08:46.826Z,19.77
2022-10-31T10:11:48.389Z,22.53
2022-10-31T10:14:45.266Z,17.20
2022-10-31T10:17:17.627Z,21.88
2022-10-31T10:20:02.859Z,20.02
2022-10-31T10:22:38.234Z,19.40
2022-10-31T10:25:22.825Z,17.73
2022-10-31T10:28:13.466Z,18.70
2022-10-31T10:30:47.885Z,21.73
2022-10-31T10:33:23.466Z,19.45
2022-10-31T10:35:59.341Z,17.52
2022-10-31T10:38:49.490Z,15.13
2022-10-31T10:41:20.771Z,16.52
2022-10-31T10:43:50.597Z,20.95
2022-10-31T10:46:45.936Z,18.33
2022-10-31T10:49:50.627Z,17.77
2022-10-31T10:52:45.927Z,14.07
2022-10-31T10:55:38.205Z,17.20
2022-10-31T10:58:08.553Z,16.98
2022-10-31T11:00:47.871Z,14.13
2022-10-31T11:03:15.500Z,16.20
2022-10-31T11:05:55.346Z,19.10
2022-10-31T11:08:27.509Z,16.27
2022-10-31T11:11:18.857Z,15.30
2022-10-31T11:13:48.641Z,15.40
2022-10-31T11:16:27.601Z,16.23
2022-10-31T11:18:54.603Z,15.07
2022-10-31T11:21:28.022Z,18.77
2022-10-31T11:24:09.596Z,18.73
2022-10-31T11:26:38.693Z,17.20
2022-10-31T11:29:06.535Z,13.95
2022-10-31T11:31:35.716Z,16.13
2022-10-31T11:34:13.519Z,18.35
2022-10-31T11:36:44.603Z,18.13
2022-10-31T11:39:25.144Z,19.08
2022-10-31T11:41:54.718Z,17.17
2022-10-31T11:44:26.259Z,17.43
2022-10-31T11:47:02.059Z,19.13
2022-10-31T11:49:40.044Z,19.50
2022-10-31T11:52:16.102Z,18.73
2022-10-31T11:54:56.310Z,17.85
2022-10-31T11:57:32.019Z,19.73
2022-10-31T12:00:07.001Z,19.95
2022-10-31T12:02:33.500Z,21.33
2022-10-31T12:05:18.586Z,24.17
2022-10-31T12:07:45.281Z,23.40
2022-10-31T12:10:13.156Z,23.50
2022-10-31T12:12:49.465Z,22.00
2022-10-31T12:15:37.510Z,19.85
2022-10-31T12:18:09.743Z,20.88
2022-10-31T12:21:14.466Z,27.80
2022-10-31T12:23:54.269Z,23.37
2022-10-31T12:26:33.162Z,24.90
2022-10-31T12:29:08.793Z,27.85
2022-10-31T12:31:45.990Z,27.95
2022-10-31T12:34:48.689Z,25.45
2022-10-31T12:37:33.796Z,26.20
2022-10-31T12:40:27.182Z,25.00
2022-10-31T12:43:18.489Z,28.50
2022-10-31T12:46:01.338Z,24.92
2022-10-31T12:48:42.472Z,24.58
2022-10-31T12:51:27.143Z,21.30
2022-10-31T12:54:18.880Z,23.88
2022-10-31T12:57:20.738Z,24.83
2022-10-31T12:59:54.022Z,25.05
2022-10-31T13:02:38.425Z,26.05
2022-10-31T13:05:14.138Z,22.13
2022-10-31T13:07:45.881Z,28.77
2022-10-31T13:10:25.521Z,22.58
2022-10-31T13:12:59.167Z,22.73
2022-10-31T13:15:30.858Z,24.67
2022-10-31T13:18:00.444Z,25.10
2022-10-31T13:20:32.675Z,24.05
2022-10-31T13:23:29.754Z,25.15
2022-10-31T13:26:01.272Z,24.77
2022-10-31T13:28:37.221Z,25.30
2022-10-31T13:31:03.544Z,24.97
2022-10-31T13:33:39.215Z,24.92
2022-10-31T13:36:33.554Z,24.63
2022-10-31T13:39:18.253Z,28.60
2022-10-31T13:41:59.110Z,25.17
2022-10-31T13:44:27.970Z,29.00
2022-10-31T13:46:56.510Z,30.20
2022-10-31T13:49:29.028Z,28.75
2022-10-31T13:52:10.721Z,27.10
2022-10-31T13:54:45.648Z,30.10
2022-10-31T13:57:43.613Z,28.87
2022-10-31T14:00:22.170Z,26.15
2022-10-31T14:02:58.524Z,27.73
2022-10-31T14:05:35.866Z,25.63
2022-10-31T14:08:05.366Z,26.67
2022-10-31T14:10:34.726Z,25.10
2022-10-31T14:13:23.321Z,29.55
2022-10-31T14:16:03.968Z,29.27
2022-10-31T14:18:39.647Z,28.67
2022-10-31T14:21:16.775Z,29.17
2022-10-31T14:23:44.786Z,28.53
2022-10-31T14:26:20.209Z,26.17
2022-10-31T14:28:47.845Z,30.95
2022-10-31T14:31:36.568Z,25.83
2022-10-31T14:34:21.337Z,26.40
2022-10-31T14:37:10.712Z,29.63
2022-10-31T14:40:27.617Z,27.27
2022-10-31T14:43:15.120Z,29.73
2022-10-31T14:46:06.008Z,27.50
2022-10-31T14:49:15.412Z,27.10
2022-10-31T14:51:45.719Z,30.10
2022-10-31T14:54:28.348Z,23.77
2022-10-31T14:56:59.561Z,29.48
2022-10-31T14:59:31.435Z,25.63
2022-10-31T15:02:02.579Z,29.98
2022-10-31T15:04:33.398Z,28.07
2022-10-31T15:07:23.308Z,27.40
2022-10-31T15:10:06.883Z,29.85
2022-10-31T15:12:38.542Z,27.45
2022-10-31T15:15:22.915Z,27.33
2022-10-31T15:17:53.825Z,28.37
2022-10-31T15:20:27.107Z,33.33
2022-10-31T15:22:56.947Z,28.13
2022-10-31T15:25:26.551Z,29.27
2022-10-31T15:27:53.882Z,29.10
2022-10-31T15:30:25.663Z,30.03
2022-10-31T15:32:58.231Z,26.08
2022-10-31T15:35:28.583Z,24.13
2022-10-31T15:37:55.918Z,26.95
2022-10-31T15:40:24.996Z,35.42
2022-10-31T15:42:58.731Z,30.13
2022-10-31T15:45:31.117Z,26.08
2022-10-31T15:48:04.410Z,30.83
2022-10-31T15:50:41.382Z,28.27
2022-10-31T15:53:39.356Z,28.02
2022-10-31T15:56:09.643Z,31.90
2022-10-31T15:58:44.656Z,24.85
2022-10-31T16:01:21.883Z,28.73
2022-10-31T16:04:12.963Z,24.48
2022-10-31T16:06:39.892Z,24.58
2022-10-31T16:09:22.685Z,24.70
2022-10-31T16:11:49.453Z,27.20
2022-10-31T16:14:25.261Z,27.02
2022-10-31T16:16:55.100Z,26.02
2022-10-31T16:19:31.100Z,28.00
2022-10-31T16:22:06.464Z,23.43
2022-10-31T16:24:35.862Z,25.20
2022-10-31T16:27:08.194Z,27.90
2022-10-31T16:29:40.034Z,28.42
2022-10-31T16:32:30.361Z,29.10
2022-10-31T16:35:18.486Z,23.27
2022-10-31T16:37:45.086Z,28.65
2022-10-31T16:40:15.757Z,27.48
2022-10-31T16:42:43.459Z,26.15
2022-10-31T16:45:17.531Z,25.45
2022-10-31T16:47:43.880Z,26.47
2022-10-31T16:50:15.227Z,28.48
2022-10-31T16:52:53.741Z,26.48
2022-10-31T16:55:28.894Z,23.92
2022-10-31T16:57:57.064Z,25.88
2022-10-31T17:00:25.644Z,27.17
2022-10-31T17:02:55.118Z,24.63
2022-10-31T17:05:22.575Z,29.60
2022-10-31T17:07:49.286Z,27.45
2022-10-31T17:10:15.991Z,28.33
2022-10-31T17:12:47.294Z,31.10
2022-10-31T17:15:25.642Z,34.10
2022-10-31T17:17:52.748Z,30.15
2022-10-31T17:20:30.405Z,32.15
2022-10-31T17:22:59.042Z,28.65
2022-10-31T17:25:29.094Z,29.30
2022-10-31T17:27:56.024Z,29.20
2022-10-31T17:30:23.423Z,32.33
2022-10-31T17:32:51.004Z,32.78
2022-10-31T17:35:18.647Z,31.45
2022-10-31T17:37:46.246Z,27.40
2022-10-31T17:40:15.249Z,28.50
2022-10-31T17:42:41.886Z,32.35
2022-10-31T17:45:08.964Z,32.38
2022-10-31T17:47:36.056Z,30.45
2022-10-31T17:50:03.765Z,32.60
2022-10-31T17:52:30.183Z,30.15
2022-10-31T17:54:56.490Z,30.42
2022-10-31T17:57:22.913Z,25.63
2022-10-31T17:59:49.256Z,31.25
2022-10-31T18:02:15.953Z,28.93
2022-10-31T18:04:42.540Z,30.67
2022-10-31T18:07:08.938Z,33.72
2022-10-31T18:09:35.365Z,26.23
2022-10-31T18:12:01.666Z,29.60
2022-10-31T18:14:29.393Z,30.17
2022-10-31T18:16:55.745Z,33.70
2022-10-31T18:19:22.171Z,31.58
2022-10-31T18:21:48.531Z,32.00
2022-10-31T18:24:14.943Z,34.30
2022-10-31T18:26:41.392Z,32.13
2022-10-31T18:29:08.001Z,30.30
2022-10-31T18:31:34.366Z,34.10
2022-10-31T18:34:00.675Z,34.85
2022-10-31T18:36:27.236Z,29.25
2022-10-31T18:38:53.898Z,33.37
2022-10-31T18:41:20.880Z,30.67
2022-10-31T18:43:47.284Z,28.75
2022-10-31T18:46:16.469Z,32.05
2022-10-31T18:48:44.539Z,28.33
2022-10-31T18:51:14.496Z,30.37
2022-10-31T18:53:40.974Z,26.80
2022-10-31T18:56:08.746Z,26.60
2022-10-31T18:58:38.122Z,29.25
2022-10-31T19:01:09.813Z,24.10
2022-10-31T19:03:36.937Z,29.63
2022-10-31T19:06:04.066Z,26.50
2022-10-31T19:08:30.639Z,26.60
2022-10-31T19:11:04.157Z,23.13
2022-10-31T19:13:32.846Z,28.52
2022-10-31T19:16:16.332Z,27.23
2022-10-31T19:18:43.771Z,21.15
2022-10-31T19:21:13.504Z,24.98
2022-10-31T19:23:40.226Z,23.70
2022-10-31T19:26:06.913Z,27.38
2022-10-31T19:28:34.757Z,24.77
2022-10-31T19:31:01.504Z,23.13
2022-10-31T19:33:34.850Z,20.27
2022-10-31T19:36:08.229Z,21.00
2022-10-31T19:38:42.814Z,24.27
2022-10-31T19:41:14.258Z,20.67
2022-10-31T19:43:40.865Z,23.38
2022-10-31T19:46:13.877Z,18.02
2022-10-31T19:48:49.442Z,24.20
2022-10-31T19:51:18.598Z,21.77
2022-10-31T19:53:45.388Z,21.63
2022-10-31T19:56:13.813Z,20.05
2022-10-31T19:58:40.837Z,19.65
2022-10-31T20:01:15.949Z,19.65
2022-10-31T20:03:44.080Z,18.77
2022-10-31T20:06:20.943Z,22.13
2022-10-31T20:08:47.304Z,18.13
2022-10-31T20:11:13.740Z,19.85
2022-10-31T20:13:40.049Z,18.10
2022-10-31T20:16:09.594Z,16.13
2022-10-31T20:18:36.994Z,20.10
2022-10-31T20:21:09.188Z,14.45
2022-10-31T20:23:36.462Z,15.50
2022-10-31T20:26:03.199Z,13.80
2022-10-31T20:28:30.997Z,14.77
2022-10-31T20:30:58.600Z,15.63
2022-10-31T20:33:25.450Z,14.23
2022-10-31T20:35:52.007Z,12.07
2022-10-31T20:38:18.496Z,10.70
2022-10-31T20:40:44.795Z,13.18
2022-10-31T20:43:11.910Z,11.50
2022-10-31T20:45:38.323Z,12.95
2022-10-31T20:48:04.824Z,11.70
2022-10-31T20:50:31.273Z,14.77
2022-10-31T20:52:57.611Z,13.52
2022-10-31T20:55:23.988Z,15.10
2022-10-31T20:57:50.329Z,18.02
2022-10-31T21:00:16.845Z,12.77
2022-10-31T21:02:43.260Z,10.98
2022-10-31T21:05:11.234Z,15.35
2022-10-31T21:07:38.146Z,13.23
2022-10-31T21:10:14.610Z,11.25
2022-10-31T21:12:44.858Z,12.13
2022-10-31T21:15:13.563Z,13.52
2022-10-31T21:17:40.624Z,10.85
2022-10-31T21:20:09.871Z,12.47
2022-10-31T21:22:36.266Z,13.80
2022-10-31T21:25:02.843Z,17.25
2022-10-31T21:27:29.211Z,9.82
2022-10-31T21:29:55.568Z,11.30
2022-10-31T21:32:21.879Z,12.77
2022-10-31T21:34:50.014Z,11.52
2022-10-31T21:37:16.686Z,13.55
2022-10-31T21:39:46.874Z,11.70
2022-10-31T21:42:20.468Z,8.23
2022-10-31T21:44:48.042Z,9.50
2022-10-31T21:47:14.381Z,9.05
2022-10-31T21:49:40.696Z,11.52
2022-10-31T21:52:07.002Z,12.05
2022-10-31T21:54:33.386Z,13.30
2022-10-31T21:57:02.522Z,7.90
2022-10-31T21:59:29.834Z,11.73
2022-10-31T22:02:00.585Z,9.13
2022-10-31T22:04:27.971Z,10.20
2022-10-31T22:06:54.366Z,11.60
2022-10-31T22:09:21.065Z,12.50
2022-10-31T22:11:47.561Z,7.55
2022-10-31T22:14:14.889Z,10.15
2022-10-31T22:16:41.822Z,10.63
2022-10-31T22:19:11.123Z,9.45
2022-10-31T22:21:48.889Z,13.90
2022-10-31T22:24:17.104Z,10.77
2022-10-31T22:26:43.775Z,7.78
2022-10-31T22:29:14.037Z,12.85
2022-10-31T22:31:43.226Z,9.88
2022-10-31T22:34:10.175Z,10.20
2022-10-31T22:36:37.704Z,9.43
2022-10-31T22:39:05.296Z,9.63
2022-10-31T22:41:34.115Z,7.70
2022-10-31T22:44:01.518Z,9.98
2022-10-31T22:46:30.235Z,10.50
2022-10-31T22:49:01.670Z,8.18
2022-10-31T22:51:30.386Z,8.73
2022-10-31T22:53:56.820Z,6.60
2022-10-31T22:56:25.333Z,7.60
2022-10-31T22:58:52.346Z,9.57
2022-10-31T23:01:21.744Z,7.00
2022-10-31T23:03:48.723Z,11.60
2022-10-31T23:06:20.718Z,14.52
2022-10-31T23:08:47.874Z,12.20
2022-10-31T23:11:24.108Z,8.60
2022-10-31T23:14:10.520Z,7.78
2022-10-31T23:16:40.064Z,9.70
2022-10-31T23:19:08.503Z,10.52
2022-10-31T23:21:56.268Z,7.75
2022-10-31T23:24:44.227Z,10.70
2022-10-31T23:27:36.986Z,9.60
2022-10-31T23:30:03.623Z,10.13
2022-10-31T23:32:33.598Z,12.82
2022-10-31T23:35:02.891Z,6.60
2022-10-31T23:37:31.974Z,8.13
2022-10-31T23:39:58.635Z,9.15
2022-10-31T23:42:26.046Z,9.52
2022-10-31T23:44:52.805Z,13.52
2022-10-31T23:47:19.950Z,10.50
2022-10-31T23:49:46.693Z,8.77
2022-10-31T23:52:14.356Z,11.55
2022-10-31T23:54:40.737Z,7.13
2022-10-31T23:57:07.632Z,7.85
2022-10-31T23:59:34.035Z,10.13
